Wake Island Airfield, Wake Island

4:01 AM WAKT on February 08, 2016 (GMT +1200)
Wake Island Army Air Field | | Change Station
CLOSE
Current Station
Airport
Location: Wake Island, Wake Island Army,
Elevation: 13 ft
Nearby Weather Stations

Elev 13 ft 19.28 °N, 166.64 °E | Updated 3 minutes ago

Clear
Clear
76 °F
Feels Like 76 °F
N
16
Wind Variable Wind from East

Today
High -- | Low -- °F
--% Chance of Precip.
Yesterday
High -- | Low -- °F
Precip. -- in
Pressure 30.09 in
Visibility 6.2 miles
Clouds Clear
Dew Point 69 °F
Humidity 77%
Rainfall 0.00 in
Snow Depth Not available.
7:25 AM 6:49 PM
Waning Crescent, 1% visible
METAR PWAK 071558Z AUTO 08014KT 9999 CLR 25/21 A3007 RMK AO2 SLP189 T02470205 $
Pressure 30.09 in
Visibility 6.2 miles
Clouds Clear
Dew Point 69 °F
Humidity 77%
Rainfall 0.00 in
Snow Depth Not available.
7:25 AM 6:49 PM
Waning Crescent, 1% visible
METAR PWAK 071558Z AUTO 08014KT 9999 CLR 25/21 A3007 RMK AO2 SLP189 T02470205 $

10-Day Weather Forecast

No radar image for this location.
×

Almanac

Astronomy

Feb. 08, 2016 Rise Set
Actual Time
Civil Twilight
Nautical Twilight
Astronomical Twilight
Moon
Length of Visible Light
Length of Day
Tomorrow will be .
, % of the Moon is Illuminated

Today's Extremes

Country Highs Country Lows

Community

WunderPhotos

Upload Photos

1,891,218 photos uploaded!

WunderBlog® & News

Nearby

Air Quality

  Air Quality AQ Index Pollutant
Not available.

Snow Depth

Station Depth Elevation

Earthquake Activity

City Distance Mag. Time & Date
Minimum magnitude displayed is 2.5.

Coastal Water Temperatures

Place Temperature

Stations

Nearby Weather Stations

Station Location Temp. Windchill Dew Point Humidity Wind Precip. Elev Updated Type